AIRPORT ID: 6V5

DATE: 2021-12-09 ZULU TIME: 1.35 LOCAL TIME: 18.35


METAR K6V5 090135Z AUTO 13005KT 10SM 02/M02 A2938

ALTIMETER: A2938 Q995

DENSITY ALT: 2600 Ft

WIND DIRECT: 140

WIND SPEED: 5 Gust

WIND CONDITIONS:

VISIBILTY: 10SM 9999M

TEMPERATURE: 36 F 2 C

DEW POINT: 28 F -2 C

HUMID: 74%

LCL: 1,000-3,000 feet

RADIO CHECK: 0

ADVISARIES: 0

GREETINGS: 0

CONVERSATIONS: 0